Time;durP1;ratioP1;P1;durP2;ratioP2;P2;SDS_P1;SDS_P2;PMS_P1;PMS_P2;Temp;Humidity;BMP_temperature;BMP_pressure;BME280_temperature;BME280_humidity;BME280_pressure;Samples;Min_cycle;Max_cycle;Signal;HPM_P1;HPM_P2
2021/01/19 00:01:29;;;;;;;21.85;20.65;;;2.30;85.30;;;;;;5032823;28;20300;-78
2021/01/19 00:03:56;;;;;;;20.88;19.60;;;2.20;84.30;;;;;;5033077;28;20248;-78
2021/01/19 00:06:22;;;;;;;21.48;20.08;;;2.20;89.90;;;;;;5033184;28;20221;-78
2021/01/19 00:08:48;;;;;;;20.20;19.10;;;2.20;87.70;;;;;;5038589;28;20566;-78
2021/01/19 00:11:15;;;;;;;21.55;20.13;;;2.20;87.20;;;;;;5038677;28;20201;-78
2021/01/19 00:13:41;;;;;;;21.25;19.73;;;2.20;85.00;;;;;;5033283;28;20201;-78
2021/01/19 00:16:09;;;;;;;21.90;20.60;;;2.20;83.70;;;;;;5032484;28;20197;-78
2021/01/19 00:18:36;;;;;;;21.50;20.00;;;2.10;83.40;;;;;;5032906;28;20205;-78
2021/01/19 00:21:02;;;;;;;21.48;20.20;;;2.00;83.70;;;;;;5032995;28;20200;-78
2021/01/19 00:23:29;;;;;;;91.93;25.17;;;2.10;86.60;;;;;;5032615;28;20200;-78
2021/01/19 00:25:55;;;;;;;26.45;20.50;;;2.10;89.40;;;;;;5032594;28;20204;-78
2021/01/19 00:28:21;;;;;;;20.65;19.55;;;2.00;88.20;;;;;;5032351;28;20244;-78
2021/01/19 00:30:48;;;;;;;21.20;19.90;;;2.10;88.00;;;;;;5032526;28;20202;-78
2021/01/19 00:33:15;;;;;;;21.00;19.75;;;2.10;87.40;;;;;;5032733;28;20354;-78
2021/01/19 00:35:41;;;;;;;22.05;20.60;;;2.10;85.90;;;;;;5032336;28;20189;-78
2021/01/19 00:38:09;;;;;;;21.38;20.13;;;2.10;84.40;;;;;;5032414;28;20223;-78
2021/01/19 00:40:36;;;;;;;21.17;19.88;;;2.20;84.50;;;;;;5032436;28;20287;-78
2021/01/19 00:43:03;;;;;;;21.70;20.40;;;2.10;85.00;;;;;;5035207;28;20197;-78
2021/01/19 00:45:29;;;;;;;22.95;21.45;;;2.20;84.50;;;;;;5036297;28;20698;-78
2021/01/19 00:47:56;;;;;;;22.80;21.40;;;2.20;83.50;;;;;;5036281;28;20221;-78
2021/01/19 00:50:24;;;;;;;22.67;21.30;;;2.20;82.50;;;;;;5036234;28;20223;-78
2021/01/19 00:52:50;;;;;;;22.02;20.67;;;2.20;82.10;;;;;;5036179;28;20200;-78
2021/01/19 00:55:16;;;;;;;21.77;20.58;;;2.20;82.10;;;;;;5036225;28;20205;-78
2021/01/19 00:57:45;;;;;;;21.55;20.35;;;2.30;81.80;;;;;;5036029;28;20224;-78
2021/01/19 01:00:13;;;;;;;22.08;20.48;;;2.20;82.40;;;;;;5035937;28;20247;-78
2021/01/19 01:02:39;;;;;;;21.10;20.00;;;2.20;82.50;;;;;;5036301;28;20204;-78
2021/01/19 01:05:07;;;;;;;21.20;20.00;;;2.10;83.50;;;;;;5036047;28;20221;-78
2021/01/19 01:07:35;;;;;;;21.23;20.02;;;2.10;83.50;;;;;;5035711;28;20217;-78
2021/01/19 01:10:03;;;;;;;21.58;20.38;;;2.10;83.50;;;;;;5035983;28;20255;-78
2021/01/19 01:12:29;;;;;;;21.17;20.08;;;2.10;83.20;;;;;;5035961;28;20716;-78
2021/01/19 01:14:56;;;;;;;22.02;20.73;;;2.10;82.90;;;;;;5035936;28;20193;-78
2021/01/19 01:17:22;;;;;;;21.13;20.02;;;2.10;82.40;;;;;;5035703;28;20227;-78
2021/01/19 01:19:48;;;;;;;22.00;20.50;;;2.10;82.40;;;;;;5035883;28;20197;-78
2021/01/19 01:22:15;;;;;;;22.35;20.95;;;2.10;82.20;;;;;;5035886;28;20208;-78
2021/01/19 01:24:42;;;;;;;22.50;21.20;;;2.00;82.60;;;;;;5035719;28;20270;-78
2021/01/19 01:27:09;;;;;;;22.27;20.88;;;2.10;82.40;;;;;;5035419;28;20220;-78
2021/01/19 01:29:35;;;;;;;21.70;20.50;;;2.00;82.20;;;;;;5035533;28;20197;-78
2021/01/19 01:32:01;;;;;;;22.80;21.38;;;2.10;81.60;;;;;;5035637;28;20198;-78
2021/01/19 01:34:28;;;;;;;22.67;21.10;;;2.10;81.70;;;;;;5035595;28;20217;-78
2021/01/19 01:36:54;;;;;;;21.40;20.30;;;2.10;81.40;;;;;;5035206;28;20224;-78
2021/01/19 01:39:20;;;;;;;21.35;20.02;;;2.00;82.40;;;;;;5035509;28;20255;-78
2021/01/19 01:41:48;;;;;;;26.05;20.10;;;2.10;82.60;;;;;;5035574;28;20211;-78
2021/01/19 01:44:14;;;;;;;21.65;20.35;;;2.10;82.80;;;;;;5035476;28;20304;-78
2021/01/19 01:46:42;;;;;;;22.52;21.23;;;2.00;83.10;;;;;;5035052;28;20217;-78
2021/01/19 01:49:09;;;;;;;22.38;21.10;;;1.90;83.30;;;;;;5035200;28;20292;-78
2021/01/19 01:51:35;;;;;;;21.75;20.27;;;1.90;83.10;;;;;;5035232;28;20198;-78
2021/01/19 01:54:03;;;;;;;22.50;20.92;;;1.90;83.00;;;;;;5034675;28;20217;-78
2021/01/19 01:56:29;;;;;;;22.75;21.30;;;1.90;82.80;;;;;;5034996;28;20221;-78
2021/01/19 01:58:56;;;;;;;21.95;20.75;;;2.00;82.50;;;;;;5035046;28;20547;-78
2021/01/19 02:01:24;;;;;;;21.15;19.95;;;2.00;82.30;;;;;;5034688;28;20209;-78
2021/01/19 02:03:50;;;;;;;21.55;20.35;;;2.10;82.00;;;;;;5034989;28;20659;-77
2021/01/19 02:06:17;;;;;;;193.13;34.55;;;2.00;81.80;;;;;;5034538;28;20201;-78
2021/01/19 02:08:54;;;;;;;21.75;20.30;;;2.10;82.80;;;;;;5034964;28;20197;-78
2021/01/19 02:11:33;;;;;;;34.90;20.83;;;2.10;86.10;;;;;;5034977;28;20563;-78
2021/01/19 02:14:11;;;;;;;21.27;20.13;;;2.00;86.50;;;;;;5034930;28;20558;-78
2021/01/19 02:16:51;;;;;;;20.80;19.60;;;2.00;84.30;;;;;;5034653;28;20243;-78
2021/01/19 02:19:53;;;;;;;581.45;84.20;;;1.90;85.50;;;;;;5034818;28;20722;-78
2021/01/19 02:22:58;;;;;;;22.80;21.10;;;2.00;87.00;;;;;;5021732;28;20204;-78
2021/01/19 02:25:33;;;;;;;22.38;21.00;;;2.10;85.00;;;;;;5032108;28;20263;-78
2021/01/19 02:28:19;;;;;;;475.92;80.53;;;2.00;83.20;;;;;;5034470;28;20604;-78
2021/01/19 02:31:05;;;;;;;20.45;19.35;;;2.00;87.30;;;;;;5034502;28;20655;-78
2021/01/19 02:33:39;;;;;;;22.45;21.05;;;2.00;87.50;;;;;;5032215;28;20729;-78
2021/01/19 02:36:19;;;;;;;21.88;20.67;;;2.00;85.10;;;;;;5034217;28;20655;-78
2021/01/19 02:38:54;;;;;;;21.90;20.60;;;2.00;83.60;;;;;;5034380;28;20255;-78
2021/01/19 02:41:21;;;;;;;22.60;21.02;;;2.00;83.20;;;;;;5034612;28;20659;-78
2021/01/19 02:43:56;;;;;;;22.65;20.95;;;1.90;81.90;;;;;;5034419;28;20197;-78
2021/01/19 02:46:24;;;;;;;21.83;20.63;;;1.90;81.90;;;;;;5034278;28;20204;-78
2021/01/19 02:48:52;;;;;;;22.25;20.85;;;2.00;82.50;;;;;;5034334;28;20284;-78
2021/01/19 02:51:19;;;;;;;22.98;21.58;;;2.10;82.50;;;;;;5034154;28;20726;-78
2021/01/19 02:53:47;;;;;;;227.25;36.42;;;2.00;82.30;;;;;;5033966;28;20228;-78
2021/01/19 02:56:19;;;;;;;21.67;20.27;;;2.00;84.10;;;;;;5033901;28;20671;-78
2021/01/19 02:58:57;;;;;;;22.08;20.73;;;2.10;84.20;;;;;;5034179;28;20236;-78
2021/01/19 03:01:29;;;;;;;21.13;19.88;;;2.10;83.00;;;;;;5033738;28;20201;-78
2021/01/19 03:03:57;;;;;;;20.90;19.80;;;2.10;87.20;;;;;;5033952;28;20201;-78
2021/01/19 03:06:31;;;;;;;21.95;20.73;;;2.10;84.30;;;;;;5032968;28;20271;-78
2021/01/19 03:08:58;;;;;;;22.20;20.90;;;2.20;84.50;;;;;;5033871;28;20215;-78
2021/01/19 03:11:25;;;;;;;22.17;20.80;;;2.30;82.90;;;;;;5033860;28;20201;-78
2021/01/19 03:13:52;;;;;;;21.90;20.80;;;2.20;82.10;;;;;;5033803;28;20216;-78
2021/01/19 03:16:21;;;;;;;22.25;20.95;;;2.20;81.70;;;;;;5037600;28;20193;-78
2021/01/19 03:18:49;;;;;;;22.15;20.95;;;2.50;80.20;;;;;;5041140;28;20197;-78
2021/01/19 03:21:16;;;;;;;22.30;21.10;;;2.50;80.90;;;;;;5037246;28;20204;-78
2021/01/19 03:23:42;;;;;;;23.98;22.48;;;2.50;80.00;;;;;;5033780;28;20201;-78
2021/01/19 03:26:09;;;;;;;23.25;21.95;;;2.60;79.50;;;;;;5033302;28;20221;-78
2021/01/19 03:28:36;;;;;;;21.92;20.73;;;2.60;79.80;;;;;;5033471;28;20197;-78
2021/01/19 03:31:03;;;;;;;22.00;20.80;;;2.50;79.80;;;;;;5033611;28;20211;-78
2021/01/19 03:33:30;;;;;;;21.52;20.33;;;2.50;80.90;;;;;;5033275;28;20199;-78
2021/01/19 03:35:56;;;;;;;24.35;22.75;;;2.60;79.90;;;;;;5033216;28;20247;-78
2021/01/19 03:38:23;;;;;;;22.13;20.70;;;2.70;78.40;;;;;;5033197;28;20218;-78
2021/01/19 03:40:50;;;;;;;21.70;20.50;;;2.80;78.50;;;;;;5033265;28;20601;-78
2021/01/19 03:43:16;;;;;;;23.98;22.45;;;2.70;78.10;;;;;;5033211;28;20197;-78
2021/01/19 03:45:42;;;;;;;23.00;21.60;;;2.70;78.00;;;;;;5032960;28;20311;-78
2021/01/19 03:48:09;;;;;;;22.75;21.48;;;2.70;78.00;;;;;;5033059;28;20217;-78
2021/01/19 03:50:35;;;;;;;23.00;21.65;;;2.80;77.50;;;;;;5033029;28;20197;-78
2021/01/19 03:53:02;;;;;;;22.20;20.70;;;2.80;77.20;;;;;;5032912;28;20205;-78
2021/01/19 03:55:30;;;;;;;23.00;21.70;;;2.80;77.50;;;;;;5032710;28;20689;-78
2021/01/19 03:57:57;;;;;;;22.40;21.10;;;2.90;77.10;;;;;;5032753;28;20725;-78
2021/01/19 04:00:24;;;;;;;22.73;21.52;;;2.90;77.10;;;;;;5032668;28;20590;-78
2021/01/19 04:02:50;;;;;;;22.05;20.75;;;2.90;77.10;;;;;;5033010;28;20323;-78
2021/01/19 04:05:17;;;;;;;21.95;20.27;;;2.80;77.20;;;;;;5032588;28;20225;-78
2021/01/19 04:07:44;;;;;;;21.90;20.60;;;2.80;77.60;;;;;;5032476;28;20217;-78
2021/01/19 04:10:12;;;;;;;23.23;21.92;;;2.80;77.70;;;;;;5032747;28;20247;-78
2021/01/19 04:12:40;;;;;;;23.48;22.17;;;2.80;78.00;;;;;;5032778;28;20203;-78
2021/01/19 04:15:08;;;;;;;23.98;22.67;;;2.80;77.30;;;;;;5032819;28;20629;-78
2021/01/19 04:17:34;;;;;;;23.63;22.27;;;2.80;77.00;;;;;;5032246;28;20296;-78
2021/01/19 04:20:01;;;;;;;22.52;21.33;;;2.80;76.90;;;;;;5032659;28;20208;-78
2021/01/19 04:22:27;;;;;;;22.83;21.60;;;2.70;77.00;;;;;;5032593;28;20205;-78
2021/01/19 04:24:53;;;;;;;23.17;21.98;;;2.70;77.00;;;;;;5032609;28;20231;-78
2021/01/19 04:27:20;;;;;;;22.98;21.70;;;2.50;77.30;;;;;;5032316;28;20221;-78
2021/01/19 04:29:47;;;;;;;24.00;22.58;;;2.50;78.10;;;;;;5032715;28;20659;-78
2021/01/19 04:32:14;;;;;;;23.02;21.73;;;2.40;78.90;;;;;;5032619;28;20197;-78
2021/01/19 04:34:41;;;;;;;24.55;22.90;;;2.40;78.80;;;;;;5032765;28;20189;-78
2021/01/19 04:37:07;;;;;;;23.83;22.33;;;2.40;78.40;;;;;;5032328;28;20243;-78
2021/01/19 04:39:33;;;;;;;23.42;22.13;;;2.40;78.60;;;;;;5032618;28;20291;-78
2021/01/19 04:42:00;;;;;;;22.73;21.40;;;2.30;79.30;;;;;;5032378;28;20287;-78
2021/01/19 04:44:27;;;;;;;22.23;20.92;;;2.20;79.10;;;;;;5032521;28;20217;-78
2021/01/19 04:46:55;;;;;;;24.13;22.73;;;2.20;78.70;;;;;;5032566;28;20221;-78
2021/01/19 04:49:23;;;;;;;25.05;23.55;;;2.30;79.60;;;;;;5033448;28;20228;-78
2021/01/19 04:51:49;;;;;;;24.20;22.70;;;2.20;79.40;;;;;;5032360;28;20300;-78
2021/01/19 04:54:17;;;;;;;23.00;21.50;;;2.30;78.70;;;;;;5032325;28;20205;-78
2021/01/19 04:56:50;;;;;;;22.40;21.10;;;2.30;78.60;;;;;;5032262;28;20225;-78
2021/01/19 04:59:22;;;;;;;23.52;22.33;;;2.30;78.60;;;;;;5032716;28;20224;-78
2021/01/19 05:02:22;;;;;;;24.40;22.90;;;2.20;78.80;;;;;;5031953;28;20200;-78
2021/01/19 05:04:57;;;;;;;23.88;22.55;;;2.20;79.20;;;;;;5007217;28;20227;-78
2021/01/19 05:07:32;;;;;;;22.13;20.92;;;2.30;80.70;;;;;;5031941;28;20231;-78
2021/01/19 05:10:07;;;;;;;23.67;22.33;;;2.30;81.80;;;;;;5032152;28;20204;-78
2021/01/19 05:12:39;;;;;;;24.00;22.30;;;2.30;80.10;;;;;;5032290;28;20201;-78
2021/01/19 05:15:10;;;;;;;24.33;22.92;;;2.40;79.90;;;;;;5032051;28;20660;-78
2021/01/19 05:17:37;;;;;;;23.70;22.30;;;2.40;78.20;;;;;;5031856;28;20275;-78
2021/01/19 05:20:05;;;;;;;23.40;22.10;;;2.40;79.30;;;;;;5032091;28;20213;-78
2021/01/19 05:22:32;;;;;;;24.38;22.80;;;2.30;79.30;;;;;;5032080;28;20200;-78
2021/01/19 05:24:59;;;;;;;24.70;22.90;;;2.30;78.30;;;;;;5031927;28;20746;-78
2021/01/19 05:27:26;;;;;;;23.85;22.45;;;2.20;78.60;;;;;;5031867;28;20680;-78
2021/01/19 05:30:00;;;;;;;24.85;23.35;;;2.20;78.60;;;;;;5035704;28;20717;-78
2021/01/19 05:32:40;;;;;;;24.35;22.92;;;2.20;78.80;;;;;;5035864;28;20270;-78
2021/01/19 05:35:15;;;;;;;24.20;22.70;;;2.20;82.50;;;;;;5035792;28;20193;-78
2021/01/19 05:37:43;;;;;;;22.73;21.40;;;2.20;80.60;;;;;;5035396;28;20577;-78
2021/01/19 05:40:10;;;;;;;22.85;21.55;;;2.20;83.90;;;;;;5035519;28;20254;-78
2021/01/19 05:42:37;;;;;;;23.63;22.25;;;2.10;83.90;;;;;;5035388;28;20201;-78
2021/01/19 05:45:08;;;;;;;22.95;21.40;;;2.20;81.40;;;;;;5035587;28;20221;-78
2021/01/19 05:47:35;;;;;;;24.90;23.33;;;2.20;83.40;;;;;;5035212;28;20214;-78
2021/01/19 05:50:01;;;;;;;24.88;23.40;;;2.10;80.80;;;;;;5035342;28;20558;-78
2021/01/19 05:52:32;;;;;;;24.83;23.33;;;2.20;81.10;;;;;;5035228;28;20586;-78
2021/01/19 05:54:59;;;;;;;23.13;21.83;;;2.20;81.80;;;;;;5035038;28;20197;-78
2021/01/19 05:57:26;;;;;;;24.40;22.65;;;2.10;82.00;;;;;;5035019;28;20600;-78
2021/01/19 05:59:54;;;;;;;24.02;22.63;;;2.00;80.90;;;;;;5035125;28;20206;-78
2021/01/19 06:02:21;;;;;;;24.50;23.00;;;2.00;80.40;;;;;;5034702;28;20205;-78
2021/01/19 06:04:49;;;;;;;25.13;23.60;;;2.00;79.20;;;;;;5034857;28;20218;-78
2021/01/19 06:07:19;;;;;;;25.20;23.80;;;2.00;79.20;;;;;;5034526;28;20717;-78
2021/01/19 06:09:46;;;;;;;24.38;22.77;;;2.10;79.60;;;;;;5034997;28;20201;-78
2021/01/19 06:12:13;;;;;;;24.27;22.67;;;2.00;80.40;;;;;;5034877;28;20201;-78
2021/01/19 06:14:45;;;;;;;24.10;22.70;;;2.10;80.10;;;;;;5034822;28;20204;-78
2021/01/19 06:17:13;;;;;;;24.70;23.20;;;2.00;80.10;;;;;;5034798;28;20213;-78
2021/01/19 06:19:41;;;;;;;23.40;22.10;;;2.00;79.20;;;;;;5034886;28;20285;-78
2021/01/19 06:22:13;;;;;;;24.13;22.63;;;1.90;79.50;;;;;;5034787;28;20197;-78
2021/01/19 06:24:41;;;;;;;23.83;22.42;;;2.00;79.90;;;;;;5035694;28;20229;-78
2021/01/19 06:27:10;;;;;;;24.60;22.92;;;2.00;78.80;;;;;;5039674;28;20294;-78
2021/01/19 06:29:37;;;;;;;24.40;23.00;;;2.00;78.10;;;;;;5040038;28;20288;-78
2021/01/19 06:32:10;;;;;;;24.17;22.75;;;2.00;78.20;;;;;;5035051;28;20283;-78
2021/01/19 06:34:38;;;;;;;23.90;22.50;;;1.90;78.30;;;;;;5034751;28;20202;-78
2021/01/19 06:37:06;;;;;;;24.75;22.67;;;1.80;78.50;;;;;;5034371;28;20255;-78
2021/01/19 06:39:40;;;;;;;24.40;22.95;;;1.80;78.90;;;;;;5033293;28;20201;-78
2021/01/19 06:42:15;;;;;;;24.50;22.80;;;1.80;78.80;;;;;;5034437;28;20197;-78
2021/01/19 06:44:45;;;;;;;23.35;21.88;;;1.80;78.40;;;;;;5034151;28;20225;-78
2021/01/19 06:47:14;;;;;;;24.35;22.70;;;1.70;82.20;;;;;;5034126;28;20248;-78
2021/01/19 06:49:41;;;;;;;25.63;24.13;;;1.70;82.10;;;;;;5034201;28;20280;-78
2021/01/19 06:52:09;;;;;;;25.23;23.55;;;1.70;80.70;;;;;;5034134;28;20197;-78
2021/01/19 06:55:09;;;;;;;24.55;22.95;;;1.80;79.80;;;;;;5034060;28;20201;-78
2021/01/19 06:58:00;;;;;;;24.45;23.02;;;1.80;79.30;;;;;;5023786;28;20226;-78
2021/01/19 07:00:38;;;;;;;25.42;24.02;;;1.60;79.60;;;;;;5025538;28;20201;-78
2021/01/19 07:03:19;;;;;;;26.63;25.13;;;1.60;79.30;;;;;;5034144;28;20197;-78
2021/01/19 07:05:50;;;;;;;47.22;25.73;;;1.60;79.00;;;;;;5033696;28;20867;-78
2021/01/19 07:08:43;;;;;;;24.90;23.27;;;1.60;80.20;;;;;;5033884;28;20307;-78
2021/01/19 07:11:42;;;;;;;25.00;23.50;;;1.60;79.50;;;;;;5033922;28;20281;-78
2021/01/19 07:14:12;;;;;;;23.50;22.30;;;1.50;79.60;;;;;;5033885;28;20663;-78
2021/01/19 07:16:55;;;;;;;24.55;22.90;;;1.50;79.10;;;;;;5033454;28;20223;-78
2021/01/19 07:19:36;;;;;;;24.90;23.42;;;1.50;79.20;;;;;;5033762;28;20659;-78
2021/01/19 07:22:06;;;;;;;24.13;22.63;;;1.50;79.20;;;;;;5033698;28;21128;-78
2021/01/19 07:24:39;;;;;;;24.20;22.90;;;1.50;78.90;;;;;;5033669;28;20307;-78
2021/01/19 07:27:08;;;;;;;25.13;23.35;;;1.50;78.90;;;;;;5033426;28;20698;-78
2021/01/19 07:29:37;;;;;;;24.90;23.30;;;1.40;81.40;;;;;;5033570;28;20547;-78
2021/01/19 07:32:09;;;;;;;25.15;23.65;;;1.40;80.30;;;;;;5033691;28;20220;-77
2021/01/19 07:34:38;;;;;;;26.92;25.25;;;1.50;81.10;;;;;;5033615;28;20198;-78
2021/01/19 07:37:05;;;;;;;26.08;24.00;;;1.60;79.60;;;;;;5033159;28;20312;-78
2021/01/19 07:39:33;;;;;;;27.27;25.58;;;1.70;78.10;;;;;;5033384;28;20194;-78
2021/01/19 07:42:19;;;;;;;26.05;24.55;;;1.70;78.30;;;;;;5033312;28;20193;-78
2021/01/19 07:44:56;;;;;;;23.70;22.27;;;1.80;78.50;;;;;;5033195;28;20221;-78
2021/01/19 07:47:34;;;;;;;24.83;23.30;;;1.80;77.90;;;;;;5033045;28;20220;-78
2021/01/19 07:50:03;;;;;;;26.17;24.38;;;1.80;77.70;;;;;;5033253;28;20200;-78
2021/01/19 07:52:36;;;;;;;26.75;24.95;;;1.70;77.70;;;;;;5032724;28;20197;-78
2021/01/19 07:55:13;;;;;;;25.45;23.75;;;1.90;77.60;;;;;;5033092;28;20271;-78
2021/01/19 07:57:40;;;;;;;26.00;24.20;;;2.00;77.50;;;;;;5032813;28;20212;-78
2021/01/19 08:00:09;;;;;;;26.65;24.60;;;2.10;77.10;;;;;;5032960;28;20202;-78
2021/01/19 08:02:36;;;;;;;26.33;24.67;;;2.20;76.70;;;;;;5033125;28;20671;-78
2021/01/19 08:05:05;;;;;;;26.95;25.08;;;2.20;76.50;;;;;;5033091;28;20282;-78
2021/01/19 08:07:39;;;;;;;26.15;24.27;;;2.30;77.10;;;;;;5032783;28;20213;-78
2021/01/19 08:10:19;;;;;;;25.67;23.98;;;2.30;77.10;;;;;;5033026;28;20257;-78
2021/01/19 08:12:48;;;;;;;27.48;25.35;;;2.40;76.60;;;;;;5033041;28;20207;-78
2021/01/19 08:15:19;;;;;;;26.60;24.40;;;2.50;76.90;;;;;;5035336;28;20198;-78
2021/01/19 08:17:50;;;;;;;27.65;25.70;;;2.50;77.50;;;;;;5032778;28;20304;-78
2021/01/19 08:20:26;;;;;;;26.90;24.98;;;2.70;75.90;;;;;;5032918;28;20197;-78
2021/01/19 08:22:55;;;;;;;25.30;23.48;;;2.80;74.60;;;;;;5032592;28;20296;-78
2021/01/19 08:25:27;;;;;;;25.65;23.95;;;2.80;74.40;;;;;;5032593;28;20223;-78
2021/01/19 08:27:53;;;;;;;25.52;24.00;;;2.90;74.40;;;;;;5032560;28;20243;-78
2021/01/19 08:30:26;;;;;;;26.17;24.65;;;3.00;74.00;;;;;;5032587;28;20201;-78
2021/01/19 08:32:53;;;;;;;26.75;24.83;;;3.10;73.70;;;;;;5032658;28;20201;-78
2021/01/19 08:35:21;;;;;;;26.17;24.40;;;3.30;73.20;;;;;;5032403;28;20193;-78
2021/01/19 08:37:51;;;;;;;27.40;25.73;;;3.30;75.70;;;;;;5032399;28;20217;-78
2021/01/19 08:40:21;;;;;;;26.70;25.08;;;3.50;73.10;;;;;;5032525;28;20205;-79
2021/01/19 08:42:48;;;;;;;27.42;25.55;;;3.60;72.00;;;;;;5033068;28;20259;-78
2021/01/19 08:45:22;;;;;;;27.42;25.67;;;3.50;73.00;;;;;;5033004;28;20216;-78
2021/01/19 08:47:51;;;;;;;25.10;23.60;;;3.70;73.00;;;;;;5032868;28;20712;-78
2021/01/19 08:50:18;;;;;;;26.35;24.38;;;3.70;74.90;;;;;;5033598;28;20212;-78
2021/01/19 08:52:45;;;;;;;27.73;25.92;;;3.80;72.90;;;;;;5033558;28;20563;-78
2021/01/19 08:55:15;;;;;;;27.30;25.45;;;3.80;72.70;;;;;;5032546;28;20205;-78
2021/01/19 08:57:43;;;;;;;26.38;24.80;;;3.80;71.30;;;;;;5032299;28;20271;-78
2021/01/19 09:00:11;;;;;;;28.27;26.23;;;3.90;70.60;;;;;;5032201;28;20625;-78
2021/01/19 09:02:38;;;;;;;27.83;26.02;;;4.10;70.30;;;;;;5032867;28;20209;-78
2021/01/19 09:05:06;;;;;;;26.75;24.73;;;4.10;70.20;;;;;;5037098;28;20217;-78
2021/01/19 09:07:33;;;;;;;26.35;24.60;;;4.10;73.60;;;;;;5035647;28;20301;-78
2021/01/19 09:09:59;;;;;;;26.20;24.70;;;4.10;71.40;;;;;;5036298;28;20616;-78
2021/01/19 09:12:26;;;;;;;25.65;24.15;;;4.00;76.20;;;;;;5036289;28;20202;-78
2021/01/19 09:14:53;;;;;;;28.77;26.80;;;4.20;72.90;;;;;;5036062;28;20562;-78
2021/01/19 09:17:24;;;;;;;27.75;25.98;;;4.20;73.00;;;;;;5035897;28;20218;-78
2021/01/19 09:20:02;;;;;;;26.55;24.85;;;4.30;72.80;;;;;;5036156;28;20201;-78
2021/01/19 09:22:28;;;;;;;26.63;24.63;;;4.30;74.10;;;;;;5036097;28;20283;-78
2021/01/19 09:24:57;;;;;;;26.10;24.35;;;4.40;72.10;;;;;;5035840;28;20306;-78
2021/01/19 09:27:23;;;;;;;31.05;27.38;;;4.40;72.40;;;;;;5035755;28;20363;-78
2021/01/19 09:29:50;;;;;;;27.52;25.67;;;4.40;75.50;;;;;;5035804;28;20681;-78
2021/01/19 09:32:19;;;;;;;25.92;24.23;;;4.40;74.40;;;;;;5036227;28;20207;-78
2021/01/19 09:34:48;;;;;;;25.52;23.90;;;4.60;71.50;;;;;;5036774;28;20221;-78
2021/01/19 09:37:17;;;;;;;26.25;24.45;;;4.60;69.50;;;;;;5038351;28;20244;-78
2021/01/19 09:39:45;;;;;;;27.13;25.27;;;4.60;70.60;;;;;;5038639;28;21067;-78
2021/01/19 09:42:12;;;;;;;25.20;23.52;;;4.70;69.60;;;;;;5036552;28;20198;-78
2021/01/19 09:44:38;;;;;;;25.58;23.95;;;4.60;70.50;;;;;;5035861;28;20292;-78
2021/01/19 09:47:09;;;;;;;26.42;24.80;;;4.60;69.60;;;;;;5035936;28;20233;-78
2021/01/19 09:49:37;;;;;;;27.15;24.95;;;4.50;71.60;;;;;;5036008;28;20629;-78
2021/01/19 09:52:10;;;;;;;27.58;25.75;;;4.50;71.00;;;;;;5035656;28;20288;-78
2021/01/19 09:54:38;;;;;;;24.70;23.30;;;4.50;70.30;;;;;;5035515;28;20207;-78
2021/01/19 09:57:07;;;;;;;26.85;25.15;;;4.50;70.40;;;;;;5035646;28;20217;-78
2021/01/19 09:59:33;;;;;;;26.95;25.27;;;4.60;70.70;;;;;;5035807;28;20198;-78
2021/01/19 10:02:00;;;;;;;28.15;26.20;;;4.80;70.30;;;;;;5035275;28;20198;-78
2021/01/19 10:04:27;;;;;;;26.60;25.00;;;4.80;70.90;;;;;;5035531;28;20197;-77
2021/01/19 10:07:04;;;;;;;26.73;24.85;;;4.80;70.10;;;;;;5035420;28;20221;-78
2021/01/19 10:09:30;;;;;;;26.63;24.52;;;4.80;69.80;;;;;;5035623;28;20292;-78
2021/01/19 10:11:58;;;;;;;26.10;24.35;;;4.90;70.00;;;;;;5035572;28;20689;-78
2021/01/19 10:14:32;;;;;;;25.58;24.05;;;5.00;69.90;;;;;;5035236;28;20204;-78
2021/01/19 10:16:58;;;;;;;25.92;24.30;;;5.00;69.60;;;;;;5035340;28;20221;-78
2021/01/19 10:19:26;;;;;;;27.45;25.75;;;4.90;69.60;;;;;;5035541;28;20261;-78
2021/01/19 10:21:54;;;;;;;25.80;24.30;;;5.00;69.60;;;;;;5035734;28;20197;-78
2021/01/19 10:24:21;;;;;;;26.83;25.17;;;4.90;69.90;;;;;;5035460;28;20223;-78
2021/01/19 10:27:03;;;;;;;25.92;24.42;;;4.80;70.40;;;;;;5035113;28;20221;-78
2021/01/19 10:29:31;;;;;;;25.20;23.60;;;4.80;71.40;;;;;;5034935;28;20200;-78
2021/01/19 10:32:02;;;;;;;26.30;24.80;;;4.80;70.50;;;;;;5034973;28;20216;-78
2021/01/19 10:34:29;;;;;;;25.45;23.65;;;4.90;70.30;;;;;;5035181;28;20305;-78
2021/01/19 10:36:57;;;;;;;26.92;25.23;;;4.90;70.40;;;;;;5034856;28;20209;-78
2021/01/19 10:39:25;;;;;;;27.92;26.00;;;4.80;70.50;;;;;;5034962;28;20209;-78
2021/01/19 10:41:52;;;;;;;26.73;24.67;;;4.80;70.80;;;;;;5034472;28;20288;-78
2021/01/19 10:44:21;;;;;;;25.92;24.25;;;4.80;72.80;;;;;;5034348;28;20201;-78
2021/01/19 10:46:55;;;;;;;25.80;24.10;;;4.80;71.60;;;;;;5033996;28;20644;-78
2021/01/19 10:49:26;;;;;;;25.83;24.20;;;4.90;71.00;;;;;;5034263;28;20201;-78
2021/01/19 10:51:53;;;;;;;25.98;24.08;;;5.00;70.60;;;;;;5034365;28;20205;-78
2021/01/19 10:54:19;;;;;;;26.73;25.08;;;5.00;70.90;;;;;;5034224;28;20216;-78
2021/01/19 10:56:47;;;;;;;26.30;24.60;;;5.00;71.30;;;;;;5033891;28;20214;-78
2021/01/19 10:59:13;;;;;;;26.23;24.58;;;5.10;70.80;;;;;;5034111;28;20201;-78
2021/01/19 11:01:41;;;;;;;25.38;23.58;;;5.10;71.30;;;;;;5033766;28;20610;-78
2021/01/19 11:04:07;;;;;;;26.88;24.95;;;5.10;70.60;;;;;;5033948;28;20725;-78
2021/01/19 11:06:35;;;;;;;25.63;24.00;;;5.10;70.80;;;;;;5033386;28;20279;-78
2021/01/19 11:09:03;;;;;;;24.85;23.33;;;5.20;70.30;;;;;;5033972;28;20202;-78
2021/01/19 11:11:29;;;;;;;25.58;23.98;;;5.20;69.90;;;;;;5033733;28;20198;-78
2021/01/19 11:14:02;;;;;;;24.90;23.40;;;5.20;69.80;;;;;;5033879;28;20223;-78
2021/01/19 11:16:30;;;;;;;26.20;24.45;;;5.20;69.70;;;;;;5033601;28;20285;-78
2021/01/19 11:19:00;;;;;;;26.77;25.05;;;5.30;69.90;;;;;;5033640;28;20259;-78
2021/01/19 11:21:26;;;;;;;27.13;25.33;;;5.30;69.80;;;;;;5033615;28;20204;-78
2021/01/19 11:23:53;;;;;;;26.50;24.42;;;5.30;69.30;;;;;;5033700;28;20197;-78
2021/01/19 11:26:19;;;;;;;25.50;23.80;;;5.30;69.30;;;;;;5032683;28;20237;-78
2021/01/19 11:28:46;;;;;;;26.65;24.95;;;5.20;69.40;;;;;;5033498;28;20284;-78
2021/01/19 11:31:12;;;;;;;27.92;25.83;;;5.40;69.20;;;;;;5033460;28;20201;-78
2021/01/19 11:33:38;;;;;;;25.50;23.80;;;5.40;69.30;;;;;;5033486;28;20294;-78
2021/01/19 11:36:06;;;;;;;25.35;23.75;;;5.40;69.00;;;;;;5033197;28;20193;-78
2021/01/19 11:38:33;;;;;;;25.15;23.42;;;5.40;69.30;;;;;;5033151;28;20204;-78
2021/01/19 11:40:59;;;;;;;25.80;23.90;;;5.30;69.80;;;;;;5033291;28;20197;-78
2021/01/19 11:43:27;;;;;;;26.90;25.20;;;5.40;69.10;;;;;;5033352;28;20551;-78
2021/01/19 11:45:53;;;;;;;24.67;23.15;;;5.40;69.00;;;;;;5033122;28;20230;-78
2021/01/19 11:48:20;;;;;;;24.92;23.40;;;5.50;69.20;;;;;;5033455;28;20221;-78
2021/01/19 11:50:46;;;;;;;24.50;22.90;;;5.40;68.50;;;;;;5033361;28;20193;-78
2021/01/19 11:53:14;;;;;;;25.10;23.40;;;5.50;69.20;;;;;;5033191;28;20224;-78
2021/01/19 11:55:40;;;;;;;25.38;23.33;;;5.60;68.10;;;;;;5033232;28;20678;-78
2021/01/19 11:58:08;;;;;;;25.08;23.67;;;5.60;68.10;;;;;;5033068;28;20221;-78
2021/01/19 12:00:35;;;;;;;26.73;25.27;;;5.70;68.20;;;;;;5032963;28;20201;-78
2021/01/19 12:03:01;;;;;;;24.90;23.25;;;5.70;67.90;;;;;;5033220;28;20203;-78
2021/01/19 12:05:27;;;;;;;25.50;23.73;;;5.70;68.10;;;;;;5032876;28;20222;-78
2021/01/19 12:07:54;;;;;;;26.27;24.30;;;5.70;68.60;;;;;;5032669;28;20589;-78
2021/01/19 12:10:21;;;;;;;26.70;24.83;;;5.80;68.20;;;;;;5032955;28;20204;-78
2021/01/19 12:12:47;;;;;;;24.35;22.95;;;6.00;67.40;;;;;;5033166;28;20199;-78
2021/01/19 12:15:14;;;;;;;26.30;24.40;;;5.90;67.60;;;;;;5033151;28;20207;-78
2021/01/19 12:17:40;;;;;;;25.30;23.70;;;5.90;67.60;;;;;;5033022;28;20618;-78
2021/01/19 12:20:09;;;;;;;25.65;23.85;;;6.10;67.40;;;;;;5033188;28;20622;-78
2021/01/19 12:22:36;;;;;;;24.98;23.35;;;6.10;67.80;;;;;;5032843;28;20197;-78
2021/01/19 12:25:03;;;;;;;25.70;23.90;;;6.20;67.40;;;;;;5032633;28;20221;-78
2021/01/19 12:27:30;;;;;;;27.35;25.40;;;6.30;66.70;;;;;;5032544;28;20217;-78
2021/01/19 12:29:56;;;;;;;27.65;25.50;;;6.30;67.20;;;;;;5032606;28;20197;-78
2021/01/19 12:32:22;;;;;;;26.30;24.40;;;6.40;66.60;;;;;;5032548;28;20215;-78
2021/01/19 12:34:50;;;;;;;26.05;24.35;;;6.40;67.00;;;;;;5032580;28;20208;-78
2021/01/19 12:37:17;;;;;;;26.60;24.95;;;6.40;67.00;;;;;;5034021;28;20224;-78
2021/01/19 12:39:43;;;;;;;26.13;24.52;;;6.50;66.70;;;;;;5040524;28;20279;-78
2021/01/19 12:42:10;;;;;;;26.25;24.65;;;6.60;66.30;;;;;;5038235;28;20703;-78
2021/01/19 12:44:37;;;;;;;26.88;25.02;;;6.60;67.10;;;;;;5041770;28;20236;-78
2021/01/19 12:47:04;;;;;;;26.20;24.52;;;6.80;65.90;;;;;;5040527;28;20221;-78